Time;durP1;ratioP1;P1;durP2;ratioP2;P2;SDS_P1;SDS_P2;PMS_P1;PMS_P2;Temp;Humidity;BMP_temperature;BMP_pressure;BME280_temperature;BME280_humidity;BME280_pressure;Samples;Min_cycle;Max_cycle;Signal;HPM_P1;HPM_P2
2023/04/23 00:01:05;;;;;;;15.40;13.87;;;16.00;63.00;;;;;;5063764;28;20442;-51
2023/04/23 00:03:33;;;;;;;14.00;13.10;;;16.10;63.20;;;;;;5063011;28;20458;-49
2023/04/23 00:06:03;;;;;;;15.17;14.17;;;16.10;63.00;;;;;;5062825;28;20427;-48
2023/04/23 00:08:30;;;;;;;15.27;14.20;;;16.20;63.50;;;;;;5061845;28;20419;-48
2023/04/23 00:10:56;;;;;;;15.23;14.33;;;16.20;62.90;;;;;;5062505;28;20458;-47
2023/04/23 00:13:22;;;;;;;15.07;13.97;;;16.20;62.70;;;;;;5062490;28;20868;-52
2023/04/23 00:15:48;;;;;;;14.50;13.60;;;16.20;62.70;;;;;;5062323;28;20173;-49
2023/04/23 00:18:15;;;;;;;15.77;14.47;;;16.30;62.70;;;;;;5062523;28;20202;-51
2023/04/23 00:20:41;;;;;;;14.93;13.70;;;16.20;62.40;;;;;;5062905;28;20560;-52
2023/04/23 00:23:07;;;;;;;14.00;13.20;;;16.20;62.40;;;;;;5062617;28;20467;-51
2023/04/23 00:25:33;;;;;;;15.23;14.00;;;16.20;63.30;;;;;;5063521;28;20419;-50
2023/04/23 00:27:58;;;;;;;14.47;13.50;;;16.30;63.20;;;;;;5063715;28;20415;-50
2023/04/23 00:30:24;;;;;;;15.53;14.43;;;16.20;62.90;;;;;;5063060;28;20652;-49
2023/04/23 00:32:50;;;;;;;15.20;14.20;;;16.30;63.20;;;;;;5063383;28;20200;-53
2023/04/23 00:35:15;;;;;;;14.77;13.70;;;16.30;63.30;;;;;;5062934;28;20216;-51
2023/04/23 00:37:41;;;;;;;15.43;14.40;;;16.20;63.40;;;;;;5062726;28;20181;-47
2023/04/23 00:40:07;;;;;;;15.60;14.50;;;16.20;63.20;;;;;;5063245;28;20204;-49
2023/04/23 00:42:33;;;;;;;15.10;14.00;;;16.20;63.50;;;;;;5063357;28;20311;-51
2023/04/23 00:45:00;;;;;;;14.17;13.37;;;16.20;63.40;;;;;;5062137;28;20487;-52
2023/04/23 00:47:28;;;;;;;15.93;14.73;;;16.20;64.10;;;;;;5062083;28;20481;-49
2023/04/23 00:49:55;;;;;;;14.83;13.93;;;16.20;63.50;;;;;;5062267;28;20521;-49
2023/04/23 00:52:21;;;;;;;14.30;13.40;;;16.20;63.70;;;;;;5062406;28;20495;-48
2023/04/23 00:54:46;;;;;;;14.40;13.53;;;16.20;64.50;;;;;;5061604;28;20435;-51
2023/04/23 00:57:12;;;;;;;16.00;14.80;;;16.20;63.40;;;;;;5062031;28;20189;-50
2023/04/23 00:59:38;;;;;;;13.80;12.90;;;16.10;63.70;;;;;;5062362;28;20304;-49
2023/04/23 01:02:04;;;;;;;15.97;14.97;;;16.10;63.70;;;;;;5062366;28;20462;-51
2023/04/23 01:04:31;;;;;;;15.00;14.10;;;16.10;63.90;;;;;;5062237;28;20447;-49
2023/04/23 01:06:57;;;;;;;16.40;15.30;;;16.10;64.70;;;;;;5060839;28;20436;-50
2023/04/23 01:09:26;;;;;;;15.90;14.50;;;16.10;64.30;;;;;;5059938;28;20435;-49
2023/04/23 01:11:53;;;;;;;15.40;14.40;;;16.10;64.30;;;;;;5062069;28;20534;-53
2023/04/23 01:14:19;;;;;;;15.47;14.37;;;16.10;64.10;;;;;;5061704;28;20943;-49
2023/04/23 01:16:45;;;;;;;15.30;14.33;;;16.10;64.60;;;;;;5061681;28;20443;-52
2023/04/23 01:19:11;;;;;;;15.27;14.20;;;16.00;65.00;;;;;;5061913;28;20497;-51
2023/04/23 01:21:41;;;;;;;15.00;14.10;;;16.00;64.80;;;;;;5058930;28;20435;-52
2023/04/23 01:24:08;;;;;;;15.43;14.40;;;16.00;65.10;;;;;;5060553;28;20486;-49
2023/04/23 01:26:34;;;;;;;14.70;13.80;;;16.00;65.50;;;;;;5061511;28;20477;-51
2023/04/23 01:29:00;;;;;;;14.03;13.13;;;15.90;65.50;;;;;;5061313;28;20534;-51
2023/04/23 01:31:30;;;;;;;15.00;14.00;;;15.90;65.70;;;;;;5061990;28;20455;-51
2023/04/23 01:33:57;;;;;;;15.83;14.77;;;15.90;66.10;;;;;;5062466;28;20411;-51
2023/04/23 01:36:24;;;;;;;15.13;14.10;;;15.90;66.60;;;;;;5061807;28;20419;-50
2023/04/23 01:38:50;;;;;;;15.00;14.10;;;15.80;66.60;;;;;;5061345;28;20459;-51
2023/04/23 01:41:16;;;;;;;15.70;14.70;;;15.80;67.00;;;;;;5062214;28;20423;-50
2023/04/23 01:43:42;;;;;;;15.00;14.00;;;15.80;67.80;;;;;;5062108;28;20420;-53
2023/04/23 01:46:09;;;;;;;15.50;14.50;;;15.70;67.90;;;;;;5061007;28;20181;-47
2023/04/23 01:48:35;;;;;;;15.80;14.70;;;15.70;68.20;;;;;;5060432;28;20526;-49
2023/04/23 01:51:01;;;;;;;15.03;14.13;;;15.60;69.40;;;;;;5061775;28;20415;-53
2023/04/23 01:53:27;;;;;;;15.00;14.00;;;15.60;69.80;;;;;;5060600;28;20427;-52
2023/04/23 01:55:54;;;;;;;14.73;13.83;;;15.50;69.30;;;;;;5061490;28;20587;-46
2023/04/23 01:58:22;;;;;;;15.20;14.10;;;15.50;70.90;;;;;;5061161;28;20185;-50
2023/04/23 02:00:48;;;;;;;15.40;14.40;;;15.40;70.60;;;;;;5060288;28;20475;-53
2023/04/23 02:03:13;;;;;;;15.33;14.23;;;15.30;71.40;;;;;;5060969;28;20493;-49
2023/04/23 02:06:00;;;;;;;14.90;13.90;;;15.20;71.90;;;;;;5060977;28;20189;-51
2023/04/23 02:08:31;;;;;;;15.40;14.47;;;15.20;72.40;;;;;;5060354;28;20238;-48
2023/04/23 02:10:56;;;;;;;15.70;14.57;;;15.10;73.70;;;;;;5060467;28;20917;-51
2023/04/23 02:13:22;;;;;;;15.50;14.40;;;15.10;74.60;;;;;;5060603;28;20189;-47
2023/04/23 02:15:48;;;;;;;15.60;14.50;;;15.10;75.20;;;;;;5060933;28;20174;-49
2023/04/23 02:18:13;;;;;;;15.70;14.57;;;15.00;75.70;;;;;;5060842;28;20198;-51
2023/04/23 02:20:40;;;;;;;15.20;14.10;;;15.00;76.00;;;;;;5059657;28;20263;-49
2023/04/23 02:23:09;;;;;;;15.60;14.60;;;15.00;76.70;;;;;;5060406;28;21228;-48
2023/04/23 02:25:37;;;;;;;15.50;14.40;;;15.00;76.50;;;;;;5060225;28;21011;-51
2023/04/23 02:28:05;;;;;;;15.87;14.63;;;14.90;77.10;;;;;;5058530;28;21227;-52
2023/04/23 02:30:32;;;;;;;16.33;15.13;;;14.90;76.80;;;;;;5060634;28;20435;-52
2023/04/23 02:32:57;;;;;;;15.90;14.80;;;14.90;76.90;;;;;;5060517;28;20945;-51
2023/04/23 02:35:23;;;;;;;15.40;14.30;;;14.90;77.20;;;;;;5059994;28;20538;-52
2023/04/23 02:37:49;;;;;;;15.30;14.20;;;14.90;77.00;;;;;;5061027;28;20192;-50
2023/04/23 02:40:15;;;;;;;15.60;14.50;;;15.00;75.90;;;;;;5042024;28;20314;-49
2023/04/23 02:42:41;;;;;;;15.17;14.07;;;15.00;76.30;;;;;;5059178;28;20933;-52
2023/04/23 02:45:07;;;;;;;15.50;14.53;;;15.00;76.30;;;;;;5060011;28;20185;-52
2023/04/23 02:47:33;;;;;;;16.23;14.90;;;15.00;76.30;;;;;;5060407;28;20890;-50
2023/04/23 02:50:01;;;;;;;14.47;13.50;;;15.00;76.70;;;;;;5060141;28;20442;-51
2023/04/23 02:52:27;;;;;;;15.40;14.30;;;15.00;76.80;;;;;;5059818;28;20435;-51
2023/04/23 02:54:53;;;;;;;15.73;14.53;;;15.00;76.70;;;;;;5059683;28;20473;-52
2023/04/23 02:57:18;;;;;;;15.77;14.73;;;15.00;77.30;;;;;;5059370;28;20181;-49
2023/04/23 02:59:45;;;;;;;15.73;14.63;;;15.00;77.00;;;;;;5058678;28;20200;-49
2023/04/23 03:02:10;;;;;;;15.60;14.50;;;15.10;76.80;;;;;;5060198;28;20300;-49
2023/04/23 03:04:36;;;;;;;15.73;14.53;;;15.10;76.10;;;;;;5059521;28;20518;-51
2023/04/23 03:07:02;;;;;;;15.00;14.00;;;15.10;76.20;;;;;;5059724;28;20184;-52
2023/04/23 03:09:27;;;;;;;15.40;14.40;;;15.10;76.40;;;;;;5059355;28;20185;-49
2023/04/23 03:11:53;;;;;;;15.53;14.43;;;15.10;76.40;;;;;;5059550;28;20189;-47
2023/04/23 03:14:18;;;;;;;15.20;14.20;;;15.10;76.80;;;;;;5059271;28;20254;-53
2023/04/23 03:16:44;;;;;;;15.57;14.47;;;15.10;77.20;;;;;;5059385;28;20189;-49
2023/04/23 03:19:10;;;;;;;15.40;14.40;;;15.10;76.80;;;;;;5059735;28;20209;-48
2023/04/23 03:21:35;;;;;;;15.30;14.17;;;15.10;77.50;;;;;;5041216;28;20695;-50
2023/04/23 03:24:01;;;;;;;15.20;14.20;;;15.10;76.40;;;;;;5017991;28;20319;-52
2023/04/23 03:26:26;;;;;;;15.33;14.23;;;15.10;76.20;;;;;;5019645;28;20175;-48
2023/04/23 03:28:52;;;;;;;15.33;14.23;;;15.10;76.80;;;;;;5018459;28;20197;-45
2023/04/23 03:31:18;;;;;;;15.40;14.20;;;15.10;76.40;;;;;;5020499;28;20259;-50
2023/04/23 03:33:43;;;;;;;16.40;15.10;;;15.20;76.70;;;;;;5024148;28;20179;-50
2023/04/23 03:36:09;;;;;;;15.10;14.13;;;15.20;76.50;;;;;;5024655;28;20190;-51
2023/04/23 03:38:35;;;;;;;15.87;14.77;;;15.20;76.50;;;;;;5023649;28;20545;-52
2023/04/23 03:41:00;;;;;;;15.90;14.80;;;15.10;76.40;;;;;;5024216;28;20448;-50
2023/04/23 03:43:26;;;;;;;15.23;14.20;;;15.20;77.20;;;;;;5023689;28;20182;-50
2023/04/23 03:45:52;;;;;;;15.70;14.60;;;15.10;77.50;;;;;;5023603;28;20189;-47
2023/04/23 03:48:17;;;;;;;15.53;14.50;;;15.10;77.30;;;;;;5024385;28;21081;-50
2023/04/23 03:50:43;;;;;;;15.53;14.37;;;15.10;78.20;;;;;;5023684;28;20398;-52
2023/04/23 03:53:09;;;;;;;16.03;14.83;;;15.20;78.10;;;;;;5023536;28;20270;-50
2023/04/23 03:55:34;;;;;;;16.87;15.57;;;15.10;76.90;;;;;;5024045;28;20331;-50
2023/04/23 03:58:01;;;;;;;15.83;14.63;;;15.20;77.40;;;;;;5021265;28;20178;-50
2023/04/23 04:00:27;;;;;;;16.30;15.20;;;15.10;77.10;;;;;;5023367;28;21252;-53
2023/04/23 04:02:53;;;;;;;15.83;14.80;;;15.10;77.20;;;;;;5022312;28;20445;-51
2023/04/23 04:05:18;;;;;;;16.33;15.23;;;15.20;77.20;;;;;;5022616;28;20183;-49
2023/04/23 04:07:44;;;;;;;15.93;14.93;;;15.20;77.80;;;;;;5023885;28;20182;-52
2023/04/23 04:10:10;;;;;;;15.90;14.80;;;15.10;77.90;;;;;;5021180;28;20226;-48
2023/04/23 04:12:36;;;;;;;15.97;14.90;;;15.20;78.70;;;;;;5024329;28;20248;-51
2023/04/23 04:15:02;;;;;;;15.80;14.80;;;15.10;79.40;;;;;;5023471;28;20425;-52
2023/04/23 04:17:28;;;;;;;17.37;16.17;;;15.10;79.70;;;;;;5023278;28;20203;-50
2023/04/23 04:19:53;;;;;;;16.33;15.30;;;15.10;82.00;;;;;;5022921;28;21001;-50
2023/04/23 04:22:19;;;;;;;16.03;15.03;;;15.10;83.20;;;;;;5032977;28;20956;-51
2023/04/23 04:24:46;;;;;;;16.63;15.43;;;15.00;83.80;;;;;;5063336;28;20656;-50
2023/04/23 04:27:12;;;;;;;16.37;15.30;;;15.00;82.90;;;;;;5063326;28;20177;-51
2023/04/23 04:29:40;;;;;;;16.13;15.10;;;15.10;84.10;;;;;;5061726;28;20904;-49
2023/04/23 04:32:07;;;;;;;15.90;14.77;;;15.10;81.90;;;;;;5063456;28;20481;-49
2023/04/23 04:34:35;;;;;;;16.77;15.60;;;15.10;82.40;;;;;;5060808;28;20430;-47
2023/04/23 04:37:00;;;;;;;15.43;14.33;;;15.10;82.60;;;;;;5062149;28;20435;-50
2023/04/23 04:39:26;;;;;;;16.10;14.90;;;15.10;82.40;;;;;;5063243;28;20527;-51
2023/04/23 04:41:53;;;;;;;16.40;15.30;;;15.20;82.40;;;;;;5062450;28;20268;-47
2023/04/23 04:44:18;;;;;;;16.40;15.20;;;15.20;82.00;;;;;;5044137;28;20239;-48
2023/04/23 04:46:44;;;;;;;15.83;14.83;;;15.20;81.80;;;;;;5062614;28;20435;-53
2023/04/23 04:49:11;;;;;;;16.10;14.90;;;15.20;81.50;;;;;;5062178;28;20582;-46
2023/04/23 04:51:37;;;;;;;15.13;14.13;;;15.10;82.20;;;;;;5062141;28;20446;-49
2023/04/23 04:54:03;;;;;;;16.57;15.27;;;15.20;82.40;;;;;;5062105;28;20441;-48
2023/04/23 04:56:29;;;;;;;15.20;14.20;;;15.20;82.20;;;;;;5061388;28;20531;-49
2023/04/23 04:58:55;;;;;;;15.40;14.30;;;15.20;82.10;;;;;;5062099;28;20459;-50
2023/04/23 05:01:25;;;;;;;15.07;14.07;;;15.20;82.40;;;;;;5061610;28;20439;-48
2023/04/23 05:03:52;;;;;;;15.60;14.60;;;15.20;82.60;;;;;;5062307;28;20259;-48
2023/04/23 05:06:18;;;;;;;15.50;14.50;;;15.30;83.00;;;;;;5061696;28;20963;-48
2023/04/23 05:08:46;;;;;;;15.77;14.83;;;15.40;83.50;;;;;;5061977;28;20492;-51
2023/04/23 05:11:14;;;;;;;16.47;15.37;;;15.40;82.90;;;;;;5061659;28;20460;-48
2023/04/23 05:13:40;;;;;;;16.43;15.33;;;15.40;83.40;;;;;;5062225;28;20730;-49
2023/04/23 05:16:05;;;;;;;16.43;15.00;;;15.40;83.30;;;;;;5059865;28;20463;-49
2023/04/23 05:18:31;;;;;;;15.80;14.70;;;15.40;83.50;;;;;;5061463;28;20947;-48
2023/04/23 05:20:57;;;;;;;15.63;14.63;;;15.50;83.90;;;;;;5062412;28;20690;-50
2023/04/23 05:23:22;;;;;;;15.30;14.30;;;15.50;84.00;;;;;;5061429;28;20620;-53
2023/04/23 05:25:50;;;;;;;15.53;14.33;;;15.40;85.20;;;;;;5061309;28;20573;-49
2023/04/23 05:28:16;;;;;;;15.00;14.00;;;15.40;85.30;;;;;;5059831;28;20205;-49
2023/04/23 05:30:42;;;;;;;15.60;14.60;;;15.40;85.60;;;;;;5062080;28;20547;-51
2023/04/23 05:33:08;;;;;;;14.90;13.90;;;15.40;86.40;;;;;;5062078;28;20664;-50
2023/04/23 05:35:33;;;;;;;15.50;14.27;;;15.30;87.00;;;;;;5062171;28;20430;-49
2023/04/23 05:38:00;;;;;;;15.47;14.40;;;15.20;87.70;;;;;;5062741;28;20268;-47
2023/04/23 05:40:25;;;;;;;15.20;14.23;;;15.30;88.00;;;;;;5043697;28;20193;-50
2023/04/23 05:42:51;;;;;;;16.40;15.13;;;15.30;88.70;;;;;;5061132;28;20428;-51
2023/04/23 05:45:17;;;;;;;15.53;14.53;;;15.30;88.80;;;;;;5062064;28;20204;-48
2023/04/23 05:47:43;;;;;;;15.67;14.60;;;15.40;90.00;;;;;;5043305;28;20272;-50
2023/04/23 05:50:10;;;;;;;15.30;14.20;;;15.50;89.60;;;;;;5059996;28;20246;-48
2023/04/23 05:52:36;;;;;;;16.00;14.90;;;15.50;89.40;;;;;;5060601;28;20165;-46
2023/04/23 05:55:02;;;;;;;14.40;13.50;;;15.50;89.90;;;;;;5061139;28;20521;-50
2023/04/23 05:57:27;;;;;;;15.50;14.50;;;15.60;90.20;;;;;;5058964;28;20208;-47
2023/04/23 05:59:53;;;;;;;15.57;14.57;;;15.60;90.00;;;;;;5060382;28;20530;-47
2023/04/23 06:02:19;;;;;;;15.90;14.90;;;15.60;90.50;;;;;;5059463;28;20179;-51
2023/04/23 06:04:44;;;;;;;15.33;14.33;;;15.70;90.20;;;;;;5058961;28;20239;-46
2023/04/23 06:07:11;;;;;;;14.07;13.17;;;15.80;90.40;;;;;;5059038;28;20223;-50
2023/04/23 06:09:36;;;;;;;16.03;14.87;;;15.90;90.30;;;;;;5061217;28;20180;-50
2023/04/23 06:12:02;;;;;;;15.17;14.07;;;15.90;90.00;;;;;;5061269;28;21126;-48
2023/04/23 06:14:28;;;;;;;16.07;15.07;;;16.00;90.00;;;;;;5060112;28;20189;-49
2023/04/23 06:16:54;;;;;;;14.50;13.60;;;16.10;89.60;;;;;;5060700;28;20788;-51
2023/04/23 06:19:20;;;;;;;15.47;14.53;;;16.10;90.10;;;;;;5060305;28;20521;-50
2023/04/23 06:21:45;;;;;;;15.30;14.40;;;16.20;90.10;;;;;;5060130;28;20308;-51
2023/04/23 06:24:11;;;;;;;15.67;14.67;;;16.20;90.10;;;;;;5059615;28;20189;-46
2023/04/23 06:26:36;;;;;;;16.00;14.90;;;16.30;90.20;;;;;;5059981;28;21001;-51
2023/04/23 06:29:02;;;;;;;15.27;14.27;;;16.40;89.80;;;;;;5055492;28;20189;-50
2023/04/23 06:31:28;;;;;;;15.03;14.00;;;16.50;89.20;;;;;;5058731;28;20189;-50
2023/04/23 06:33:53;;;;;;;16.13;15.20;;;16.60;88.90;;;;;;5059136;28;20642;-50
2023/04/23 06:36:20;;;;;;;15.47;14.47;;;16.80;89.10;;;;;;5059347;28;20193;-48
2023/04/23 06:38:45;;;;;;;15.30;14.30;;;16.90;88.30;;;;;;5058637;28;20181;-50
2023/04/23 06:41:12;;;;;;;15.70;14.70;;;17.00;88.00;;;;;;5060349;28;20485;-50
2023/04/23 06:43:38;;;;;;;14.97;14.07;;;17.30;87.40;;;;;;5058879;28;20208;-47
2023/04/23 06:46:03;;;;;;;14.77;13.97;;;17.50;86.80;;;;;;5057769;28;21421;-49
2023/04/23 06:48:31;;;;;;;15.07;14.17;;;17.80;85.70;;;;;;5060299;28;20423;-52
2023/04/23 06:50:57;;;;;;;13.83;13.03;;;17.90;84.10;;;;;;5057849;28;20287;-52
2023/04/23 06:53:22;;;;;;;14.90;13.97;;;18.00;82.90;;;;;;5056242;28;20431;-53
2023/04/23 06:55:50;;;;;;;14.23;13.43;;;18.10;82.50;;;;;;5055352;28;20469;-51
2023/04/23 06:58:18;;;;;;;14.70;13.83;;;18.20;82.20;;;;;;5055779;28;20215;-47
2023/04/23 07:00:44;;;;;;;14.63;13.77;;;18.20;82.20;;;;;;5054634;28;20491;-49
2023/04/23 07:03:10;;;;;;;14.20;13.40;;;18.20;82.10;;;;;;5054482;28;20511;-52
2023/04/23 07:05:35;;;;;;;13.17;12.47;;;18.20;82.30;;;;;;5054941;28;20254;-49
2023/04/23 07:08:01;;;;;;;14.50;13.53;;;18.10;79.70;;;;;;5057554;28;20447;-53
2023/04/23 07:10:27;;;;;;;13.67;12.97;;;18.00;81.00;;;;;;5055521;28;20887;-48
2023/04/23 07:12:52;;;;;;;14.60;13.70;;;17.90;81.90;;;;;;5058435;28;20220;-50
2023/04/23 07:15:18;;;;;;;14.93;14.03;;;17.90;82.40;;;;;;5059658;28;21283;-51
2023/04/23 07:17:43;;;;;;;14.27;13.37;;;18.00;83.20;;;;;;5059888;28;20193;-52
2023/04/23 07:20:10;;;;;;;14.70;13.87;;;18.10;82.70;;;;;;5059348;28;20208;-52
2023/04/23 07:22:35;;;;;;;13.00;12.20;;;18.10;81.40;;;;;;5060101;28;20247;-51
2023/04/23 07:25:02;;;;;;;13.10;12.40;;;18.10;81.50;;;;;;5059432;28;20423;-53
2023/04/23 07:27:28;;;;;;;12.63;12.03;;;18.00;81.00;;;;;;5053556;28;20181;-50
2023/04/23 07:29:54;;;;;;;11.63;11.03;;;18.10;80.00;;;;;;5058718;28;20438;-50
2023/04/23 07:32:22;;;;;;;10.70;10.03;;;18.00;79.40;;;;;;5058930;28;20292;-50
2023/04/23 07:34:48;;;;;;;11.57;10.97;;;17.90;78.90;;;;;;5057693;28;20415;-47
2023/04/23 07:37:13;;;;;;;11.27;10.57;;;17.90;79.40;;;;;;5056622;28;20426;-47
2023/04/23 07:39:39;;;;;;;11.60;11.00;;;17.90;79.90;;;;;;5054495;28;20496;-50
2023/04/23 07:42:05;;;;;;;11.90;11.20;;;18.00;80.70;;;;;;5055098;28;20526;-52
2023/04/23 07:44:30;;;;;;;12.00;11.23;;;18.00;80.00;;;;;;5056780;28;20169;-48
2023/04/23 07:46:56;;;;;;;11.57;11.03;;;18.10;80.10;;;;;;5055449;28;21054;-47
2023/04/23 07:49:21;;;;;;;11.23;10.63;;;18.10;79.60;;;;;;5055420;28;20207;-49
2023/04/23 07:51:47;;;;;;;11.60;11.00;;;18.10;79.60;;;;;;5055496;28;20468;-48
2023/04/23 07:54:13;;;;;;;11.67;11.07;;;18.20;79.40;;;;;;5056267;28;20708;-46
2023/04/23 07:56:39;;;;;;;12.37;11.77;;;17.90;81.00;;;;;;5057086;28;20422;-48
2023/04/23 07:59:05;;;;;;;11.27;10.67;;;17.90;81.20;;;;;;5056857;28;20227;-50
2023/04/23 08:01:32;;;;;;;11.40;10.70;;;17.70;80.70;;;;;;5057833;28;20262;-50
2023/04/23 08:03:59;;;;;;;9.77;9.27;;;17.70;81.70;;;;;;5058011;28;20797;-48
2023/04/23 08:06:25;;;;;;;11.80;11.20;;;17.60;81.40;;;;;;5058363;28;20415;-52
2023/04/23 08:08:52;;;;;;;10.30;9.80;;;17.60;82.10;;;;;;5058317;28;20415;-45
2023/04/23 08:11:18;;;;;;;11.37;10.87;;;17.80;82.40;;;;;;5057814;28;20427;-50
2023/04/23 08:13:43;;;;;;;9.80;9.30;;;18.00;82.20;;;;;;5059090;28;20476;-48
2023/04/23 08:16:09;;;;;;;10.87;10.37;;;18.10;81.30;;;;;;5058717;28;20192;-51
2023/04/23 08:18:35;;;;;;;11.90;11.30;;;18.20;82.20;;;;;;5059226;28;20472;-50
2023/04/23 08:21:00;;;;;;;10.87;10.30;;;18.40;80.50;;;;;;5062788;28;20204;-47
2023/04/23 08:23:26;;;;;;;11.90;11.30;;;18.50;78.70;;;;;;5062834;28;20232;-46
2023/04/23 08:25:52;;;;;;;10.33;9.83;;;18.50;79.60;;;;;;5062570;28;20180;-49
2023/04/23 08:28:18;;;;;;;11.77;11.17;;;18.80;79.10;;;;;;5062265;28;20610;-51
2023/04/23 08:30:44;;;;;;;11.03;10.53;;;19.10;77.60;;;;;;5062055;28;20672;-51
2023/04/23 08:33:10;;;;;;;10.63;10.13;;;19.40;76.20;;;;;;5062676;28;20427;-48
2023/04/23 08:35:36;;;;;;;11.33;10.73;;;19.60;75.90;;;;;;5062157;28;20608;-49
2023/04/23 08:38:02;;;;;;;10.83;10.43;;;19.70;74.90;;;;;;5062586;28;21663;-49
2023/04/23 08:40:30;;;;;;;11.10;10.60;;;19.90;72.80;;;;;;5060787;28;20338;-49
2023/04/23 08:42:57;;;;;;;10.50;10.10;;;20.00;71.50;;;;;;5061983;28;20708;-49
2023/04/23 08:45:23;;;;;;;11.20;10.70;;;20.00;71.30;;;;;;5062043;28;20458;-49
2023/04/23 08:47:49;;;;;;;10.10;9.70;;;20.00;71.40;;;;;;5062188;28;20897;-50
2023/04/23 08:50:16;;;;;;;10.40;10.00;;;20.10;70.70;;;;;;5062123;28;20439;-48
2023/04/23 08:52:56;;;;;;;9.53;9.13;;;20.10;70.40;;;;;;5062711;28;20742;-48
2023/04/23 08:55:23;;;;;;;10.87;10.47;;;19.70;70.40;;;;;;5062012;28;20415;-50
2023/04/23 08:57:49;;;;;;;11.50;11.00;;;19.30;73.20;;;;;;5062804;28;20907;-50
2023/04/23 09:00:18;;;;;;;10.40;10.00;;;19.10;74.60;;;;;;5061705;28;20466;-50
2023/04/23 09:02:46;;;;;;;10.67;10.17;;;18.90;74.90;;;;;;5062161;28;20886;-51
2023/04/23 09:05:12;;;;;;;10.73;10.23;;;18.80;76.50;;;;;;5061788;28;20797;-49
2023/04/23 09:07:38;;;;;;;11.00;10.40;;;18.80;75.90;;;;;;5061040;28;20446;-49
2023/04/23 09:10:09;;;;;;;10.43;9.93;;;18.80;76.00;;;;;;5060660;28;20492;-48
2023/04/23 09:12:35;;;;;;;11.53;10.93;;;18.80;76.50;;;;;;5062020;28;20495;-49
2023/04/23 09:15:09;;;;;;;9.80;9.40;;;18.80;76.40;;;;;;5061731;28;20709;-49
2023/04/23 09:17:36;;;;;;;11.00;10.50;;;18.90;75.80;;;;;;5061628;28;20447;-47
2023/04/23 09:20:02;;;;;;;10.13;9.73;;;19.00;76.90;;;;;;5059971;28;20462;-47
2023/04/23 09:22:47;;;;;;;10.20;9.80;;;18.80;76.00;;;;;;5061451;28;20750;-50
2023/04/23 09:25:16;;;;;;;9.80;9.40;;;18.80;76.90;;;;;;5061850;28;20422;-51
2023/04/23 09:27:42;;;;;;;9.63;9.23;;;18.70;77.90;;;;;;5061288;28;20422;-50
2023/04/23 09:30:09;;;;;;;10.20;9.80;;;18.80;76.50;;;;;;5060725;28;20766;-47
2023/04/23 09:32:41;;;;;;;9.77;9.37;;;18.70;75.30;;;;;;5061633;28;20511;-50
2023/04/23 09:35:15;;;;;;;10.03;9.63;;;18.70;75.70;;;;;;5061966;28;20419;-48
2023/04/23 09:37:42;;;;;;;10.20;9.80;;;18.60;76.00;;;;;;5061100;28;20419;-47
2023/04/23 09:40:08;;;;;;;10.07;9.57;;;18.70;76.10;;;;;;5060994;28;20462;-51
2023/04/23 09:42:35;;;;;;;10.30;9.90;;;18.70;75.70;;;;;;5061120;28;20506;-49
2023/04/23 09:45:06;;;;;;;10.30;9.90;;;18.70;76.10;;;;;;5061187;28;20841;-48
2023/04/23 09:47:33;;;;;;;8.90;8.60;;;18.80;75.90;;;;;;5061135;28;20421;-48
2023/04/23 09:50:00;;;;;;;10.37;9.87;;;18.80;74.40;;;;;;5060022;28;20465;-46
2023/04/23 09:52:27;;;;;;;9.20;8.90;;;18.70;71.90;;;;;;5061051;28;20419;-48
2023/04/23 09:54:56;;;;;;;10.40;10.00;;;18.60;71.20;;;;;;5061167;28;20627;-51
2023/04/23 09:57:25;;;;;;;10.00;9.60;;;18.70;72.80;;;;;;5061037;28;20419;-49
2023/04/23 09:59:51;;;;;;;10.83;10.33;;;18.70;72.50;;;;;;5060472;28;20494;-46
2023/04/23 10:02:17;;;;;;;10.00;9.60;;;18.70;72.40;;;;;;5060545;28;20511;-48
2023/04/23 10:04:43;;;;;;;10.07;9.67;;;18.60;72.30;;;;;;5060656;28;20177;-48
2023/04/23 10:07:12;;;;;;;9.97;9.57;;;18.70;73.30;;;;;;5060845;28;20451;-50
2023/04/23 10:09:40;;;;;;;9.87;9.47;;;18.60;73.90;;;;;;5060848;28;20173;-51
2023/04/23 10:12:07;;;;;;;10.47;10.07;;;18.50;75.10;;;;;;5060387;28;20424;-51
2023/04/23 10:14:33;;;;;;;9.60;9.20;;;18.70;74.90;;;;;;5060649;28;20415;-50
2023/04/23 10:17:03;;;;;;;10.93;10.43;;;18.80;74.30;;;;;;5060252;28;20423;-50
2023/04/23 10:19:31;;;;;;;10.10;9.70;;;18.70;74.40;;;;;;5060049;28;20459;-45
2023/04/23 10:22:00;;;;;;;9.53;9.13;;;18.40;73.10;;;;;;5059141;28;20432;-47
2023/04/23 10:24:30;;;;;;;9.63;9.23;;;18.40;72.50;;;;;;5060528;28;20790;-49
2023/04/23 10:26:59;;;;;;;9.80;9.40;;;18.40;72.40;;;;;;5060193;28;20414;-50
2023/04/23 10:29:35;;;;;;;9.53;9.23;;;18.40;72.50;;;;;;5060462;28;20917;-48
2023/04/23 10:32:05;;;;;;;9.73;9.33;;;18.50;72.40;;;;;;5060312;28;20502;-49
2023/04/23 10:34:31;;;;;;;10.50;10.10;;;18.60;72.30;;;;;;5059863;28;20423;-50
2023/04/23 10:36:59;;;;;;;10.23;9.83;;;18.70;72.60;;;;;;5060106;28;20965;-49
2023/04/23 10:39:29;;;;;;;9.70;9.30;;;18.70;73.20;;;;;;5059858;28;20471;-51
2023/04/23 10:41:55;;;;;;;9.87;9.57;;;18.70;73.70;;;;;;5059794;28;20934;-52
2023/04/23 10:44:21;;;;;;;10.30;9.90;;;18.80;73.10;;;;;;5059985;28;20407;-50
2023/04/23 10:46:57;;;;;;;9.77;9.37;;;18.70;72.10;;;;;;5059817;28;20414;-46
2023/04/23 10:49:24;;;;;;;9.30;9.00;;;18.60;71.90;;;;;;5058879;28;20234;-46
2023/04/23 10:51:57;;;;;;;10.10;9.70;;;18.60;72.80;;;;;;5059812;28;20411;-50
2023/04/23 10:54:29;;;;;;;10.40;10.00;;;18.70;72.90;;;;;;5060119;28;20518;-50
2023/04/23 10:57:05;;;;;;;9.77;9.37;;;18.70;73.00;;;;;;5059557;28;20984;-48
2023/04/23 10:59:33;;;;;;;10.23;9.83;;;18.90;72.00;;;;;;5059812;28;20455;-52
2023/04/23 11:02:07;;;;;;;9.17;8.80;;;19.10;70.90;;;;;;5060042;28;20429;-52
2023/04/23 11:04:34;;;;;;;10.00;9.60;;;19.40;70.70;;;;;;5059550;28;20638;-51
2023/04/23 11:07:07;;;;;;;9.67;9.30;;;19.80;69.10;;;;;;5059944;28;20922;-51
2023/04/23 11:09:45;;;;;;;9.00;8.70;;;20.20;67.20;;;;;;5059773;28;20570;-48
2023/04/23 11:12:19;;;;;;;9.43;9.13;;;20.60;66.10;;;;;;5059355;28;20532;-48
2023/04/23 11:14:49;;;;;;;9.13;8.83;;;20.80;63.40;;;;;;5059752;28;20874;-50
2023/04/23 11:17:16;;;;;;;9.17;8.87;;;20.80;61.80;;;;;;5058884;28;20494;-51
2023/04/23 11:20:09;;;;;;;9.40;9.00;;;20.20;61.00;;;;;;5059582;28;20808;-50
2023/04/23 11:22:50;;;;;;;9.77;9.37;;;20.20;64.00;;;;;;5059296;28;20463;-54
2023/04/23 11:25:26;;;;;;;9.17;8.87;;;20.30;63.50;;;;;;5059341;28;20441;-47
2023/04/23 11:27:54;;;;;;;9.33;9.00;;;20.50;62.30;;;;;;5059638;28;20415;-48
2023/04/23 11:30:25;;;;;;;10.00;9.60;;;20.90;62.90;;;;;;5059327;28;20907;-48
2023/04/23 11:32:53;;;;;;;9.70;9.30;;;20.80;62.40;;;;;;5057915;28;20435;-49
2023/04/23 11:35:21;;;;;;;9.43;9.03;;;20.40;65.10;;;;;;5059688;28;20407;-50
2023/04/23 11:37:47;;;;;;;8.40;8.10;;;20.30;66.20;;;;;;5059081;28;20449;-50
2023/04/23 11:40:18;;;;;;;9.53;9.13;;;20.10;67.70;;;;;;5059472;28;21014;-49
2023/04/23 11:42:53;;;;;;;9.77;9.37;;;20.10;69.40;;;;;;5058876;28;20450;-50
2023/04/23 11:45:28;;;;;;;9.97;9.57;;;20.10;69.80;;;;;;5059728;28;20448;-49
2023/04/23 11:47:56;;;;;;;9.70;9.30;;;20.10;69.60;;;;;;5058968;28;20411;-49
2023/04/23 11:50:24;;;;;;;9.80;9.40;;;20.50;71.00;;;;;;5059060;28;20448;-49
2023/04/23 11:52:51;;;;;;;9.67;9.27;;;20.80;68.90;;;;;;5060320;28;20426;-48
2023/04/23 11:55:17;;;;;;;9.67;9.27;;;20.80;67.70;;;;;;5063935;28;21118;-48
2023/04/23 11:57:44;;;;;;;10.53;10.13;;;20.70;68.50;;;;;;5063624;28;20423;-47
2023/04/23 12:00:19;;;;;;;9.60;9.30;;;21.00;67.80;;;;;;5062569;28;20987;-51
2023/04/23 12:02:57;;;;;;;9.90;9.50;;;21.20;66.90;;;;;;5062647;28;20418;-48
2023/04/23 12:05:41;;;;;;;9.87;9.50;;;21.60;64.40;;;;;;5062716;28;20415;-48
2023/04/23 12:08:09;;;;;;;10.97;10.57;;;21.90;62.90;;;;;;5063135;28;20484;-47
2023/04/23 12:10:54;;;;;;;9.50;9.10;;;22.20;60.80;;;;;;5061783;28;20508;-47
2023/04/23 12:13:26;;;;;;;10.03;9.63;;;22.20;59.60;;;;;;5062696;28;20419;-47
2023/04/23 12:15:57;;;;;;;9.90;9.50;;;22.10;60.10;;;;;;5062893;28;20411;-48
2023/04/23 12:18:31;;;;;;;10.40;10.00;;;21.90;60.70;;;;;;5063224;28;20424;-50
2023/04/23 12:21:07;;;;;;;10.10;9.70;;;21.80;61.90;;;;;;5062729;28;20451;-49
2023/04/23 12:23:34;;;;;;;10.10;9.70;;;21.60;60.80;;;;;;5062349;28;20968;-51
2023/04/23 12:26:02;;;;;;;9.50;9.20;;;21.60;62.30;;;;;;5062733;28;20411;-49
2023/04/23 12:28:27;;;;;;;9.97;9.57;;;21.60;61.20;;;;;;5062575;28;20403;-46
2023/04/23 12:30:58;;;;;;;9.30;8.90;;;21.60;61.70;;;;;;5061630;28;20851;-51